Lake Orion, MI (48359)

4:21 PM EDT on April 27, 2017 (GMT -0400)
Keatington | | Change Station

Elev 977 ft 42.74 °N, 83.30 °W | Updated 4 minutes ago

Mostly Cloudy
Mostly Cloudy
71.3 °F
Feels Like 77 °F
N
3.1
Wind Variable Wind from South

Today
High -- | Low -- °F
--% Chance of Precip.
Yesterday
High -- | Low -- °F
Precip. -- in
Pressure 29.52 in
Visibility 10.0 miles
Clouds Few 3500 ft
Scattered Clouds 4600 ft
Mostly Cloudy 9000 ft
Mostly Cloudy 25000 ft
Heat Index 77 °F
Dew Point 50 °F
Humidity 47%
Rainfall 0.12 in
Snow Depth Not available.
6:32 AM 8:29 PM
Waxing Crescent, 3% visible
METAR KPTK 271953Z 24019G26KT 10SM FEW035 SCT046 BKN090 BKN250 20/09 A2952 RMK AO2 PK WND 24032/1936 SLP994 T02000094
Pressure 29.52 in
Visibility 10.0 miles
Clouds Few 3500 ft
Scattered Clouds 4600 ft
Mostly Cloudy 9000 ft
Mostly Cloudy 25000 ft
Heat Index 77 °F
Dew Point 50 °F
Humidity 47%
Rainfall 0.12 in
Snow Depth Not available.
6:32 AM 8:29 PM
Waxing Crescent, 3% visible
METAR KPTK 271953Z 24019G26KT 10SM FEW035 SCT046 BKN090 BKN250 20/09 A2952 RMK AO2 PK WND 24032/1936 SLP994 T02000094

Get Severe Weather Alerts

Thanks for signing up!

Be on the lookout for a verification email in your inbox.

You'll start receiving the daily forecast at 8 AM.

×

10-Day Weather Forecast

Almanac

Astronomy

Apr. 27, 2017 Rise Set
Actual Time
Civil Twilight
Nautical Twilight
Astronomical Twilight
Moon
Length of Visible Light
Length of Day
Tomorrow will be .
, % of the Moon is Illuminated

Today's Extremes

State Highs State Lows

Community

WunderPhotos

WunderBlog® & News

Nearby

Air Quality

  Air Quality AQ Index Pollutant
Not available.

Snow Depth

Station Depth Elevation

Earthquake Activity

City Distance Mag. Time & Date
Minimum magnitude displayed is 2.5.

Coastal Water Temperatures

Place Temperature

Stations

Nearby Weather Stations

Station Location Temp. Windchill Dew Point Humidity Wind Precip. Elev Updated Type
                   

Watches & Warnings

There are currently no watches in effect.